sensor_id;sensor_type;location;lat;lon;timestamp;P1;durP1;ratioP1;P2;durP2;ratioP2
70829;SDS011;58451;51.550;7.208;2023-11-21T00:00:37;25.80;;;10.90;;
70829;SDS011;58451;51.550;7.208;2023-11-21T00:02:11;24.70;;;9.70;;
70829;SDS011;58451;51.550;7.208;2023-11-21T00:03:43;26.40;;;9.60;;
70829;SDS011;58451;51.550;7.208;2023-11-21T00:05:16;26.10;;;10.40;;
70829;SDS011;58451;51.550;7.208;2023-11-21T00:06:47;22.80;;;9.00;;
70829;SDS011;58451;51.550;7.208;2023-11-21T00:08:19;21.80;;;8.80;;
70829;SDS011;58451;51.550;7.208;2023-11-21T00:09:51;23.70;;;9.40;;
70829;SDS011;58451;51.550;7.208;2023-11-21T00:11:23;22.20;;;9.60;;
70829;SDS011;58451;51.550;7.208;2023-11-21T00:12:56;22.80;;;9.90;;
70829;SDS011;58451;51.550;7.208;2023-11-21T00:14:28;25.80;;;9.90;;
70829;SDS011;58451;51.550;7.208;2023-11-21T00:16:00;23.40;;;9.50;;
70829;SDS011;58451;51.550;7.208;2023-11-21T00:17:32;23.20;;;8.70;;
70829;SDS011;58451;51.550;7.208;2023-11-21T00:19:05;24.00;;;9.00;;
70829;SDS011;58451;51.550;7.208;2023-11-21T00:20:36;21.40;;;8.60;;
70829;SDS011;58451;51.550;7.208;2023-11-21T00:22:08;21.00;;;8.50;;
70829;SDS011;58451;51.550;7.208;2023-11-21T00:23:40;22.60;;;9.10;;
70829;SDS011;58451;51.550;7.208;2023-11-21T00:25:12;21.50;;;8.30;;
70829;SDS011;58451;51.550;7.208;2023-11-21T00:26:46;20.30;;;8.70;;
70829;SDS011;58451;51.550;7.208;2023-11-21T00:28:20;20.60;;;7.50;;
70829;SDS011;58451;51.550;7.208;2023-11-21T00:29:52;20.80;;;8.10;;
70829;SDS011;58451;51.550;7.208;2023-11-21T00:31:25;25.60;;;8.20;;
70829;SDS011;58451;51.550;7.208;2023-11-21T00:32:57;25.70;;;8.50;;
70829;SDS011;58451;51.550;7.208;2023-11-21T00:34:29;22.70;;;9.20;;
70829;SDS011;58451;51.550;7.208;2023-11-21T00:36:01;22.00;;;8.40;;
70829;SDS011;58451;51.550;7.208;2023-11-21T00:37:33;19.40;;;9.70;;
70829;SDS011;58451;51.550;7.208;2023-11-21T00:39:05;23.40;;;9.30;;
70829;SDS011;58451;51.550;7.208;2023-11-21T00:40:38;20.00;;;7.70;;
70829;SDS011;58451;51.550;7.208;2023-11-21T00:42:10;22.20;;;8.00;;
70829;SDS011;58451;51.550;7.208;2023-11-21T00:43:42;21.60;;;8.60;;
70829;SDS011;58451;51.550;7.208;2023-11-21T00:45:15;20.70;;;9.00;;
70829;SDS011;58451;51.550;7.208;2023-11-21T00:46:47;20.50;;;8.40;;
70829;SDS011;58451;51.550;7.208;2023-11-21T00:48:19;22.40;;;8.50;;
70829;SDS011;58451;51.550;7.208;2023-11-21T00:49:51;23.40;;;8.90;;
70829;SDS011;58451;51.550;7.208;2023-11-21T00:51:24;22.40;;;8.50;;
70829;SDS011;58451;51.550;7.208;2023-11-21T00:52:56;21.40;;;9.40;;
70829;SDS011;58451;51.550;7.208;2023-11-21T00:54:28;21.30;;;8.90;;
70829;SDS011;58451;51.550;7.208;2023-11-21T00:56:00;24.10;;;9.40;;
70829;SDS011;58451;51.550;7.208;2023-11-21T00:57:31;28.10;;;9.80;;
70829;SDS011;58451;51.550;7.208;2023-11-21T00:59:03;22.50;;;9.50;;
70829;SDS011;58451;51.550;7.208;2023-11-21T01:00:36;21.40;;;9.50;;
70829;SDS011;58451;51.550;7.208;2023-11-21T01:02:11;24.20;;;9.40;;
70829;SDS011;58451;51.550;7.208;2023-11-21T01:03:42;25.60;;;9.70;;
70829;SDS011;58451;51.550;7.208;2023-11-21T01:05:15;19.70;;;8.50;;
70829;SDS011;58451;51.550;7.208;2023-11-21T01:06:47;22.50;;;9.20;;
70829;SDS011;58451;51.550;7.208;2023-11-21T01:08:19;22.80;;;9.00;;
70829;SDS011;58451;51.550;7.208;2023-11-21T01:09:51;22.10;;;9.10;;
70829;SDS011;58451;51.550;7.208;2023-11-21T01:11:23;20.60;;;9.00;;
70829;SDS011;58451;51.550;7.208;2023-11-21T01:12:55;22.20;;;9.40;;
70829;SDS011;58451;51.550;7.208;2023-11-21T01:14:27;24.60;;;9.30;;
70829;SDS011;58451;51.550;7.208;2023-11-21T01:15:59;19.80;;;8.90;;
70829;SDS011;58451;51.550;7.208;2023-11-21T01:17:31;21.60;;;9.20;;
70829;SDS011;58451;51.550;7.208;2023-11-21T01:19:03;21.50;;;8.80;;
70829;SDS011;58451;51.550;7.208;2023-11-21T01:20:36;20.20;;;8.20;;
70829;SDS011;58451;51.550;7.208;2023-11-21T01:22:07;22.50;;;8.40;;
70829;SDS011;58451;51.550;7.208;2023-11-21T01:23:40;18.70;;;7.40;;
70829;SDS011;58451;51.550;7.208;2023-11-21T01:25:12;19.10;;;7.30;;
70829;SDS011;58451;51.550;7.208;2023-11-21T01:26:46;17.80;;;7.80;;
70829;SDS011;58451;51.550;7.208;2023-11-21T01:28:18;20.20;;;7.80;;
70829;SDS011;58451;51.550;7.208;2023-11-21T01:29:51;24.40;;;8.90;;
70829;SDS011;58451;51.550;7.208;2023-11-21T01:31:26;18.70;;;8.10;;
70829;SDS011;58451;51.550;7.208;2023-11-21T01:33:01;17.50;;;7.10;;
70829;SDS011;58451;51.550;7.208;2023-11-21T01:34:34;18.60;;;7.60;;
70829;SDS011;58451;51.550;7.208;2023-11-21T01:36:06;20.30;;;8.10;;
70829;SDS011;58451;51.550;7.208;2023-11-21T01:37:38;19.80;;;8.10;;
70829;SDS011;58451;51.550;7.208;2023-11-21T01:39:10;21.20;;;8.50;;
70829;SDS011;58451;51.550;7.208;2023-11-21T01:40:46;20.90;;;7.50;;
70829;SDS011;58451;51.550;7.208;2023-11-21T01:42:19;18.20;;;7.70;;
70829;SDS011;58451;51.550;7.208;2023-11-21T01:43:51;20.30;;;8.10;;
70829;SDS011;58451;51.550;7.208;2023-11-21T01:45:25;18.50;;;8.10;;
70829;SDS011;58451;51.550;7.208;2023-11-21T01:46:58;19.60;;;7.90;;
70829;SDS011;58451;51.550;7.208;2023-11-21T01:48:30;18.30;;;8.00;;
70829;SDS011;58451;51.550;7.208;2023-11-21T01:50:03;18.70;;;7.40;;
70829;SDS011;58451;51.550;7.208;2023-11-21T01:51:38;19.70;;;8.80;;
70829;SDS011;58451;51.550;7.208;2023-11-21T01:53:12;19.30;;;7.90;;
70829;SDS011;58451;51.550;7.208;2023-11-21T01:54:44;19.70;;;7.90;;
70829;SDS011;58451;51.550;7.208;2023-11-21T01:56:16;20.90;;;8.50;;
70829;SDS011;58451;51.550;7.208;2023-11-21T01:57:48;17.50;;;7.20;;
70829;SDS011;58451;51.550;7.208;2023-11-21T01:59:21;20.50;;;8.00;;
70829;SDS011;58451;51.550;7.208;2023-11-21T02:00:54;20.60;;;8.20;;
70829;SDS011;58451;51.550;7.208;2023-11-21T02:02:27;23.20;;;8.10;;
70829;SDS011;58451;51.550;7.208;2023-11-21T02:03:59;19.10;;;7.70;;
70829;SDS011;58451;51.550;7.208;2023-11-21T02:05:32;19.60;;;8.10;;
70829;SDS011;58451;51.550;7.208;2023-11-21T02:07:04;19.70;;;8.50;;
70829;SDS011;58451;51.550;7.208;2023-11-21T02:08:39;21.60;;;8.20;;
70829;SDS011;58451;51.550;7.208;2023-11-21T02:10:15;19.80;;;7.20;;
70829;SDS011;58451;51.550;7.208;2023-11-21T02:11:48;20.10;;;7.90;;
70829;SDS011;58451;51.550;7.208;2023-11-21T02:13:21;18.90;;;7.80;;
70829;SDS011;58451;51.550;7.208;2023-11-21T02:14:54;21.90;;;8.50;;
70829;SDS011;58451;51.550;7.208;2023-11-21T02:16:27;18.90;;;7.80;;
70829;SDS011;58451;51.550;7.208;2023-11-21T02:18:01;20.20;;;7.90;;
70829;SDS011;58451;51.550;7.208;2023-11-21T02:19:34;24.10;;;8.60;;
70829;SDS011;58451;51.550;7.208;2023-11-21T02:21:06;23.30;;;8.50;;
70829;SDS011;58451;51.550;7.208;2023-11-21T02:22:40;23.90;;;9.20;;
70829;SDS011;58451;51.550;7.208;2023-11-21T02:24:13;21.70;;;8.60;;
70829;SDS011;58451;51.550;7.208;2023-11-21T02:25:45;24.40;;;8.70;;
70829;SDS011;58451;51.550;7.208;2023-11-21T02:27:20;26.50;;;8.90;;
70829;SDS011;58451;51.550;7.208;2023-11-21T02:28:54;21.60;;;8.00;;
70829;SDS011;58451;51.550;7.208;2023-11-21T02:30:27;23.30;;;9.00;;
70829;SDS011;58451;51.550;7.208;2023-11-21T02:32:00;21.50;;;8.30;;
70829;SDS011;58451;51.550;7.208;2023-11-21T02:33:31;22.00;;;9.00;;
70829;SDS011;58451;51.550;7.208;2023-11-21T02:35:06;25.20;;;9.00;;
70829;SDS011;58451;51.550;7.208;2023-11-21T02:36:41;21.80;;;9.60;;
70829;SDS011;58451;51.550;7.208;2023-11-21T02:38:13;21.40;;;9.40;;
70829;SDS011;58451;51.550;7.208;2023-11-21T02:39:47;22.10;;;10.50;;
70829;SDS011;58451;51.550;7.208;2023-11-21T02:41:18;18.80;;;7.80;;
70829;SDS011;58451;51.550;7.208;2023-11-21T02:42:51;18.00;;;7.50;;
70829;SDS011;58451;51.550;7.208;2023-11-21T02:44:23;22.30;;;8.70;;
70829;SDS011;58451;51.550;7.208;2023-11-21T02:45:55;18.60;;;8.10;;
70829;SDS011;58451;51.550;7.208;2023-11-21T02:47:26;21.00;;;9.00;;
70829;SDS011;58451;51.550;7.208;2023-11-21T02:49:02;22.10;;;9.60;;
70829;SDS011;58451;51.550;7.208;2023-11-21T02:50:35;24.20;;;9.00;;
70829;SDS011;58451;51.550;7.208;2023-11-21T02:52:07;18.40;;;8.20;;
70829;SDS011;58451;51.550;7.208;2023-11-21T02:53:39;19.00;;;8.30;;
70829;SDS011;58451;51.550;7.208;2023-11-21T02:55:11;20.10;;;8.00;;
70829;SDS011;58451;51.550;7.208;2023-11-21T02:56:43;18.10;;;7.70;;
70829;SDS011;58451;51.550;7.208;2023-11-21T02:58:15;18.60;;;8.10;;
70829;SDS011;58451;51.550;7.208;2023-11-21T02:59:47;22.20;;;8.50;;
70829;SDS011;58451;51.550;7.208;2023-11-21T03:01:19;20.80;;;7.60;;
70829;SDS011;58451;51.550;7.208;2023-11-21T03:02:51;21.00;;;8.30;;
70829;SDS011;58451;51.550;7.208;2023-11-21T03:04:24;21.70;;;9.10;;
70829;SDS011;58451;51.550;7.208;2023-11-21T03:05:57;21.60;;;9.10;;
70829;SDS011;58451;51.550;7.208;2023-11-21T03:07:29;23.80;;;9.20;;
70829;SDS011;58451;51.550;7.208;2023-11-21T03:09:02;20.80;;;9.10;;
70829;SDS011;58451;51.550;7.208;2023-11-21T03:10:34;19.00;;;8.50;;
70829;SDS011;58451;51.550;7.208;2023-11-21T03:12:06;23.20;;;9.40;;
70829;SDS011;58451;51.550;7.208;2023-11-21T03:13:39;19.20;;;8.10;;
70829;SDS011;58451;51.550;7.208;2023-11-21T03:15:14;22.50;;;8.80;;
70829;SDS011;58451;51.550;7.208;2023-11-21T03:16:48;20.60;;;8.60;;
70829;SDS011;58451;51.550;7.208;2023-11-21T03:18:21;22.50;;;9.90;;
70829;SDS011;58451;51.550;7.208;2023-11-21T03:19:56;21.00;;;8.90;;
70829;SDS011;58451;51.550;7.208;2023-11-21T03:21:28;22.90;;;8.50;;
70829;SDS011;58451;51.550;7.208;2023-11-21T03:23:00;20.80;;;9.00;;
70829;SDS011;58451;51.550;7.208;2023-11-21T03:24:32;25.60;;;10.30;;
70829;SDS011;58451;51.550;7.208;2023-11-21T03:26:04;25.50;;;11.40;;
70829;SDS011;58451;51.550;7.208;2023-11-21T03:27:37;25.40;;;9.30;;
70829;SDS011;58451;51.550;7.208;2023-11-21T03:29:10;23.50;;;8.70;;
70829;SDS011;58451;51.550;7.208;2023-11-21T03:30:42;23.20;;;9.50;;
70829;SDS011;58451;51.550;7.208;2023-11-21T03:32:14;23.80;;;9.30;;
70829;SDS011;58451;51.550;7.208;2023-11-21T03:33:46;22.70;;;9.20;;
70829;SDS011;58451;51.550;7.208;2023-11-21T03:35:18;21.40;;;8.20;;
70829;SDS011;58451;51.550;7.208;2023-11-21T03:36:52;19.80;;;8.20;;
70829;SDS011;58451;51.550;7.208;2023-11-21T03:38:24;21.90;;;8.10;;
70829;SDS011;58451;51.550;7.208;2023-11-21T03:39:56;23.00;;;9.10;;
70829;SDS011;58451;51.550;7.208;2023-11-21T03:41:29;20.00;;;8.20;;
70829;SDS011;58451;51.550;7.208;2023-11-21T03:43:00;19.80;;;7.70;;
70829;SDS011;58451;51.550;7.208;2023-11-21T03:44:32;25.80;;;9.80;;
70829;SDS011;58451;51.550;7.208;2023-11-21T03:46:04;20.60;;;8.70;;
70829;SDS011;58451;51.550;7.208;2023-11-21T03:47:36;20.00;;;8.00;;
70829;SDS011;58451;51.550;7.208;2023-11-21T03:49:08;19.60;;;8.80;;
70829;SDS011;58451;51.550;7.208;2023-11-21T03:50:40;21.80;;;9.50;;
70829;SDS011;58451;51.550;7.208;2023-11-21T03:52:12;19.90;;;8.40;;
70829;SDS011;58451;51.550;7.208;2023-11-21T03:53:44;21.80;;;9.10;;
70829;SDS011;58451;51.550;7.208;2023-11-21T03:55:15;21.00;;;8.90;;
70829;SDS011;58451;51.550;7.208;2023-11-21T03:56:48;23.40;;;9.00;;
70829;SDS011;58451;51.550;7.208;2023-11-21T03:58:20;21.10;;;8.70;;
70829;SDS011;58451;51.550;7.208;2023-11-21T03:59:52;22.70;;;9.10;;
70829;SDS011;58451;51.550;7.208;2023-11-21T04:01:24;21.20;;;9.00;;
70829;SDS011;58451;51.550;7.208;2023-11-21T04:02:56;22.70;;;8.70;;
70829;SDS011;58451;51.550;7.208;2023-11-21T04:04:28;24.70;;;8.60;;
70829;SDS011;58451;51.550;7.208;2023-11-21T04:06:00;23.20;;;8.80;;
70829;SDS011;58451;51.550;7.208;2023-11-21T04:07:32;21.90;;;8.50;;
70829;SDS011;58451;51.550;7.208;2023-11-21T04:09:04;23.70;;;9.70;;
70829;SDS011;58451;51.550;7.208;2023-11-21T04:10:36;23.50;;;9.10;;
70829;SDS011;58451;51.550;7.208;2023-11-21T04:12:08;21.30;;;9.30;;
70829;SDS011;58451;51.550;7.208;2023-11-21T04:13:43;23.00;;;9.00;;
70829;SDS011;58451;51.550;7.208;2023-11-21T04:15:15;21.50;;;8.70;;
70829;SDS011;58451;51.550;7.208;2023-11-21T04:16:47;21.70;;;9.80;;
70829;SDS011;58451;51.550;7.208;2023-11-21T04:18:20;22.90;;;9.50;;
70829;SDS011;58451;51.550;7.208;2023-11-21T04:19:51;23.80;;;9.50;;
70829;SDS011;58451;51.550;7.208;2023-11-21T04:21:23;23.50;;;9.00;;
70829;SDS011;58451;51.550;7.208;2023-11-21T04:22:55;26.10;;;9.20;;
70829;SDS011;58451;51.550;7.208;2023-11-21T04:24:27;23.20;;;9.10;;
70829;SDS011;58451;51.550;7.208;2023-11-21T04:26:00;26.90;;;9.80;;
70829;SDS011;58451;51.550;7.208;2023-11-21T04:27:33;22.10;;;9.40;;
70829;SDS011;58451;51.550;7.208;2023-11-21T04:29:06;25.20;;;9.30;;
70829;SDS011;58451;51.550;7.208;2023-11-21T04:30:37;24.40;;;9.00;;
70829;SDS011;58451;51.550;7.208;2023-11-21T04:32:11;21.20;;;8.20;;
70829;SDS011;58451;51.550;7.208;2023-11-21T04:33:44;25.20;;;9.50;;
70829;SDS011;58451;51.550;7.208;2023-11-21T04:35:16;23.20;;;9.50;;
70829;SDS011;58451;51.550;7.208;2023-11-21T04:36:49;23.40;;;9.80;;
70829;SDS011;58451;51.550;7.208;2023-11-21T04:38:21;25.90;;;10.20;;
70829;SDS011;58451;51.550;7.208;2023-11-21T04:39:53;25.00;;;9.80;;
70829;SDS011;58451;51.550;7.208;2023-11-21T04:41:25;23.20;;;9.20;;
70829;SDS011;58451;51.550;7.208;2023-11-21T04:42:57;23.30;;;9.70;;
70829;SDS011;58451;51.550;7.208;2023-11-21T04:44:29;22.40;;;9.00;;
70829;SDS011;58451;51.550;7.208;2023-11-21T04:46:01;21.70;;;9.40;;
70829;SDS011;58451;51.550;7.208;2023-11-21T04:47:33;19.40;;;8.80;;
70829;SDS011;58451;51.550;7.208;2023-11-21T04:49:05;24.50;;;9.70;;
70829;SDS011;58451;51.550;7.208;2023-11-21T04:50:37;25.10;;;9.60;;
70829;SDS011;58451;51.550;7.208;2023-11-21T04:52:10;22.90;;;9.20;;
70829;SDS011;58451;51.550;7.208;2023-11-21T04:53:42;22.60;;;8.90;;
70829;SDS011;58451;51.550;7.208;2023-11-21T04:55:14;22.20;;;8.30;;
70829;SDS011;58451;51.550;7.208;2023-11-21T04:56:47;22.00;;;8.70;;
70829;SDS011;58451;51.550;7.208;2023-11-21T04:58:18;21.30;;;8.10;;
70829;SDS011;58451;51.550;7.208;2023-11-21T04:59:52;20.70;;;7.70;;
70829;SDS011;58451;51.550;7.208;2023-11-21T05:01:24;21.00;;;8.10;;
70829;SDS011;58451;51.550;7.208;2023-11-21T05:02:56;20.50;;;7.50;;
70829;SDS011;58451;51.550;7.208;2023-11-21T05:04:28;19.90;;;8.00;;
70829;SDS011;58451;51.550;7.208;2023-11-21T05:06:00;22.80;;;9.10;;
70829;SDS011;58451;51.550;7.208;2023-11-21T05:07:32;24.10;;;8.90;;
70829;SDS011;58451;51.550;7.208;2023-11-21T05:09:04;23.80;;;8.80;;
70829;SDS011;58451;51.550;7.208;2023-11-21T05:10:36;20.80;;;8.40;;
70829;SDS011;58451;51.550;7.208;2023-11-21T05:12:10;22.80;;;8.90;;
70829;SDS011;58451;51.550;7.208;2023-11-21T05:13:42;24.10;;;9.30;;
70829;SDS011;58451;51.550;7.208;2023-11-21T05:15:15;21.20;;;8.40;;
70829;SDS011;58451;51.550;7.208;2023-11-21T05:16:48;17.20;;;7.80;;
70829;SDS011;58451;51.550;7.208;2023-11-21T05:18:23;25.30;;;9.20;;
70829;SDS011;58451;51.550;7.208;2023-11-21T05:19:58;24.50;;;9.20;;
70829;SDS011;58451;51.550;7.208;2023-11-21T05:21:30;24.00;;;8.80;;
70829;SDS011;58451;51.550;7.208;2023-11-21T05:23:05;22.50;;;8.30;;
70829;SDS011;58451;51.550;7.208;2023-11-21T05:24:36;20.90;;;8.40;;
70829;SDS011;58451;51.550;7.208;2023-11-21T05:26:10;23.80;;;9.40;;
70829;SDS011;58451;51.550;7.208;2023-11-21T05:27:42;25.70;;;10.30;;
70829;SDS011;58451;51.550;7.208;2023-11-21T05:29:14;23.80;;;9.30;;
70829;SDS011;58451;51.550;7.208;2023-11-21T05:30:46;24.30;;;8.30;;
70829;SDS011;58451;51.550;7.208;2023-11-21T05:32:18;23.50;;;9.30;;
70829;SDS011;58451;51.550;7.208;2023-11-21T05:33:50;23.00;;;9.00;;
70829;SDS011;58451;51.550;7.208;2023-11-21T05:35:22;21.50;;;8.80;;
70829;SDS011;58451;51.550;7.208;2023-11-21T05:36:54;22.90;;;8.40;;
70829;SDS011;58451;51.550;7.208;2023-11-21T05:38:25;21.00;;;8.30;;
70829;SDS011;58451;51.550;7.208;2023-11-21T05:39:57;23.60;;;8.80;;
70829;SDS011;58451;51.550;7.208;2023-11-21T05:41:29;25.10;;;9.40;;
70829;SDS011;58451;51.550;7.208;2023-11-21T05:43:01;21.80;;;7.70;;
70829;SDS011;58451;51.550;7.208;2023-11-21T05:44:33;23.60;;;8.80;;
70829;SDS011;58451;51.550;7.208;2023-11-21T05:46:06;19.80;;;8.40;;
70829;SDS011;58451;51.550;7.208;2023-11-21T05:47:43;19.50;;;8.10;;
70829;SDS011;58451;51.550;7.208;2023-11-21T05:49:17;19.90;;;9.10;;
70829;SDS011;58451;51.550;7.208;2023-11-21T05:50:53;27.20;;;9.50;;
70829;SDS011;58451;51.550;7.208;2023-11-21T05:52:25;23.40;;;9.00;;
70829;SDS011;58451;51.550;7.208;2023-11-21T05:53:57;23.10;;;8.70;;
70829;SDS011;58451;51.550;7.208;2023-11-21T05:55:29;23.20;;;9.00;;
70829;SDS011;58451;51.550;7.208;2023-11-21T05:57:01;21.90;;;9.30;;
70829;SDS011;58451;51.550;7.208;2023-11-21T05:58:32;21.40;;;9.60;;
70829;SDS011;58451;51.550;7.208;2023-11-21T06:00:09;20.30;;;8.20;;
70829;SDS011;58451;51.550;7.208;2023-11-21T06:01:53;20.80;;;7.90;;
70829;SDS011;58451;51.550;7.208;2023-11-21T06:03:25;25.20;;;8.10;;
70829;SDS011;58451;51.550;7.208;2023-11-21T06:04:57;22.90;;;8.80;;
70829;SDS011;58451;51.550;7.208;2023-11-21T06:06:29;22.60;;;8.50;;
70829;SDS011;58451;51.550;7.208;2023-11-21T06:08:01;22.10;;;8.80;;
70829;SDS011;58451;51.550;7.208;2023-11-21T06:09:33;24.40;;;9.00;;
70829;SDS011;58451;51.550;7.208;2023-11-21T06:11:06;21.50;;;8.40;;
70829;SDS011;58451;51.550;7.208;2023-11-21T06:12:38;21.90;;;8.00;;
70829;SDS011;58451;51.550;7.208;2023-11-21T06:14:12;22.70;;;8.30;;
70829;SDS011;58451;51.550;7.208;2023-11-21T06:15:43;19.90;;;8.00;;
70829;SDS011;58451;51.550;7.208;2023-11-21T06:17:15;21.60;;;8.40;;
70829;SDS011;58451;51.550;7.208;2023-11-21T06:18:47;27.50;;;9.50;;
70829;SDS011;58451;51.550;7.208;2023-11-21T06:20:20;23.00;;;8.00;;
70829;SDS011;58451;51.550;7.208;2023-11-21T06:21:52;22.30;;;8.80;;
70829;SDS011;58451;51.550;7.208;2023-11-21T06:23:25;20.50;;;8.80;;
70829;SDS011;58451;51.550;7.208;2023-11-21T06:24:56;27.50;;;8.60;;
70829;SDS011;58451;51.550;7.208;2023-11-21T06:26:28;24.10;;;8.60;;
70829;SDS011;58451;51.550;7.208;2023-11-21T06:28:00;24.90;;;9.90;;
70829;SDS011;58451;51.550;7.208;2023-11-21T06:29:32;20.00;;;7.70;;
70829;SDS011;58451;51.550;7.208;2023-11-21T06:31:04;26.70;;;9.20;;
70829;SDS011;58451;51.550;7.208;2023-11-21T06:32:37;23.00;;;8.40;;
70829;SDS011;58451;51.550;7.208;2023-11-21T06:34:11;27.50;;;9.20;;
70829;SDS011;58451;51.550;7.208;2023-11-21T06:35:43;25.40;;;8.80;;
70829;SDS011;58451;51.550;7.208;2023-11-21T06:37:16;23.40;;;9.80;;
70829;SDS011;58451;51.550;7.208;2023-11-21T06:38:48;22.50;;;9.20;;
70829;SDS011;58451;51.550;7.208;2023-11-21T06:40:20;23.40;;;9.50;;
70829;SDS011;58451;51.550;7.208;2023-11-21T06:41:53;22.80;;;9.40;;
70829;SDS011;58451;51.550;7.208;2023-11-21T06:43:26;25.30;;;8.40;;
70829;SDS011;58451;51.550;7.208;2023-11-21T06:45:02;25.30;;;9.20;;
70829;SDS011;58451;51.550;7.208;2023-11-21T06:46:38;24.20;;;8.90;;
70829;SDS011;58451;51.550;7.208;2023-11-21T06:48:14;21.60;;;8.70;;
70829;SDS011;58451;51.550;7.208;2023-11-21T06:49:46;21.80;;;8.30;;
70829;SDS011;58451;51.550;7.208;2023-11-21T06:51:21;21.10;;;8.20;;
70829;SDS011;58451;51.550;7.208;2023-11-21T06:52:52;21.60;;;8.30;;
70829;SDS011;58451;51.550;7.208;2023-11-21T06:54:26;20.90;;;9.00;;
70829;SDS011;58451;51.550;7.208;2023-11-21T06:55:58;22.80;;;8.40;;
70829;SDS011;58451;51.550;7.208;2023-11-21T06:57:31;22.00;;;8.70;;
70829;SDS011;58451;51.550;7.208;2023-11-21T06:59:06;22.90;;;8.70;;
70829;SDS011;58451;51.550;7.208;2023-11-21T07:00:38;22.70;;;8.40;;
70829;SDS011;58451;51.550;7.208;2023-11-21T07:02:09;23.00;;;8.50;;
70829;SDS011;58451;51.550;7.208;2023-11-21T07:03:42;21.20;;;8.60;;
70829;SDS011;58451;51.550;7.208;2023-11-21T07:05:14;24.70;;;8.90;;
70829;SDS011;58451;51.550;7.208;2023-11-21T07:06:46;20.90;;;7.80;;
70829;SDS011;58451;51.550;7.208;2023-11-21T07:08:18;25.00;;;9.00;;
70829;SDS011;58451;51.550;7.208;2023-11-21T07:09:50;21.90;;;9.10;;
70829;SDS011;58451;51.550;7.208;2023-11-21T07:11:23;22.10;;;8.40;;
70829;SDS011;58451;51.550;7.208;2023-11-21T07:12:55;22.40;;;8.40;;
70829;SDS011;58451;51.550;7.208;2023-11-21T07:14:28;23.70;;;8.90;;
70829;SDS011;58451;51.550;7.208;2023-11-21T07:16:00;24.20;;;8.90;;
70829;SDS011;58451;51.550;7.208;2023-11-21T07:17:33;21.30;;;7.90;;
70829;SDS011;58451;51.550;7.208;2023-11-21T07:19:09;22.30;;;8.10;;
70829;SDS011;58451;51.550;7.208;2023-11-21T07:20:41;23.90;;;8.30;;
70829;SDS011;58451;51.550;7.208;2023-11-21T07:22:13;23.10;;;8.60;;
70829;SDS011;58451;51.550;7.208;2023-11-21T07:23:45;23.50;;;8.70;;
70829;SDS011;58451;51.550;7.208;2023-11-21T07:25:17;28.40;;;9.80;;
70829;SDS011;58451;51.550;7.208;2023-11-21T07:26:49;22.80;;;8.60;;
70829;SDS011;58451;51.550;7.208;2023-11-21T07:28:21;22.30;;;8.70;;
70829;SDS011;58451;51.550;7.208;2023-11-21T07:29:52;22.40;;;8.30;;
70829;SDS011;58451;51.550;7.208;2023-11-21T07:31:25;23.70;;;8.20;;
70829;SDS011;58451;51.550;7.208;2023-11-21T07:32:57;22.60;;;8.50;;
70829;SDS011;58451;51.550;7.208;2023-11-21T07:34:28;24.20;;;8.70;;
70829;SDS011;58451;51.550;7.208;2023-11-21T07:36:00;25.50;;;8.70;;
70829;SDS011;58451;51.550;7.208;2023-11-21T07:37:32;23.80;;;8.90;;
70829;SDS011;58451;51.550;7.208;2023-11-21T07:39:04;24.70;;;8.80;;
70829;SDS011;58451;51.550;7.208;2023-11-21T07:40:38;20.70;;;8.40;;
70829;SDS011;58451;51.550;7.208;2023-11-21T07:42:09;21.80;;;8.20;;
70829;SDS011;58451;51.550;7.208;2023-11-21T07:43:44;22.00;;;8.20;;
70829;SDS011;58451;51.550;7.208;2023-11-21T07:45:16;22.70;;;9.00;;
70829;SDS011;58451;51.550;7.208;2023-11-21T07:46:51;27.00;;;9.40;;
70829;SDS011;58451;51.550;7.208;2023-11-21T07:48:23;23.90;;;8.90;;
70829;SDS011;58451;51.550;7.208;2023-11-21T07:49:55;26.50;;;9.00;;
70829;SDS011;58451;51.550;7.208;2023-11-21T07:51:30;22.70;;;9.20;;
70829;SDS011;58451;51.550;7.208;2023-11-21T07:53:01;19.90;;;8.20;;
70829;SDS011;58451;51.550;7.208;2023-11-21T07:54:37;25.60;;;9.00;;
70829;SDS011;58451;51.550;7.208;2023-11-21T07:56:09;23.70;;;9.20;;
70829;SDS011;58451;51.550;7.208;2023-11-21T07:57:41;24.20;;;9.00;;
70829;SDS011;58451;51.550;7.208;2023-11-21T07:59:13;25.20;;;9.10;;
70829;SDS011;58451;51.550;7.208;2023-11-21T08:00:45;26.30;;;9.20;;
70829;SDS011;58451;51.550;7.208;2023-11-21T08:02:20;23.80;;;9.20;;
70829;SDS011;58451;51.550;7.208;2023-11-21T08:03:52;19.80;;;8.00;;
70829;SDS011;58451;51.550;7.208;2023-11-21T08:05:25;27.70;;;9.90;;
70829;SDS011;58451;51.550;7.208;2023-11-21T08:07:07;25.00;;;9.40;;
70829;SDS011;58451;51.550;7.208;2023-11-21T08:08:39;23.30;;;8.80;;
70829;SDS011;58451;51.550;7.208;2023-11-21T08:10:11;24.20;;;9.10;;
70829;SDS011;58451;51.550;7.208;2023-11-21T08:11:43;22.60;;;9.00;;
70829;SDS011;58451;51.550;7.208;2023-11-21T08:13:14;22.60;;;9.10;;
70829;SDS011;58451;51.550;7.208;2023-11-21T08:14:48;26.10;;;8.90;;
70829;SDS011;58451;51.550;7.208;2023-11-21T08:16:20;23.80;;;9.30;;
70829;SDS011;58451;51.550;7.208;2023-11-21T08:17:52;23.40;;;9.10;;
70829;SDS011;58451;51.550;7.208;2023-11-21T08:19:24;21.70;;;8.40;;
70829;SDS011;58451;51.550;7.208;2023-11-21T08:20:56;24.40;;;9.70;;
70829;SDS011;58451;51.550;7.208;2023-11-21T08:22:29;27.60;;;9.60;;
70829;SDS011;58451;51.550;7.208;2023-11-21T08:26:16;25.70;;;9.60;;
70829;SDS011;58451;51.550;7.208;2023-11-21T08:27:53;23.10;;;9.20;;
70829;SDS011;58451;51.550;7.208;2023-11-21T08:29:25;25.60;;;9.90;;
70829;SDS011;58451;51.550;7.208;2023-11-21T08:30:58;27.60;;;9.10;;
70829;SDS011;58451;51.550;7.208;2023-11-21T08:32:32;23.60;;;9.00;;
70829;SDS011;58451;51.550;7.208;2023-11-21T08:34:05;22.30;;;9.00;;
70829;SDS011;58451;51.550;7.208;2023-11-21T08:35:37;23.60;;;9.30;;
70829;SDS011;58451;51.550;7.208;2023-11-21T08:37:10;28.60;;;9.60;;
70829;SDS011;58451;51.550;7.208;2023-11-21T08:38:42;23.50;;;9.10;;
70829;SDS011;58451;51.550;7.208;2023-11-21T08:40:14;27.60;;;10.50;;
70829;SDS011;58451;51.550;7.208;2023-11-21T08:41:49;23.40;;;9.50;;
70829;SDS011;58451;51.550;7.208;2023-11-21T08:43:22;22.90;;;10.00;;
70829;SDS011;58451;51.550;7.208;2023-11-21T08:44:54;26.60;;;9.50;;
70829;SDS011;58451;51.550;7.208;2023-11-21T08:46:26;34.90;;;10.00;;
70829;SDS011;58451;51.550;7.208;2023-11-21T08:47:58;25.40;;;9.90;;
70829;SDS011;58451;51.550;7.208;2023-11-21T08:49:30;24.00;;;10.20;;
70829;SDS011;58451;51.550;7.208;2023-11-21T08:51:03;26.20;;;10.30;;
70829;SDS011;58451;51.550;7.208;2023-11-21T08:52:36;26.20;;;10.20;;
70829;SDS011;58451;51.550;7.208;2023-11-21T08:54:09;25.30;;;9.90;;
70829;SDS011;58451;51.550;7.208;2023-11-21T08:55:40;28.90;;;11.80;;
70829;SDS011;58451;51.550;7.208;2023-11-21T08:57:12;40.40;;;13.80;;
70829;SDS011;58451;51.550;7.208;2023-11-21T08:58:44;34.80;;;12.40;;
70829;SDS011;58451;51.550;7.208;2023-11-21T09:00:16;34.50;;;13.50;;
70829;SDS011;58451;51.550;7.208;2023-11-21T09:01:49;38.70;;;14.00;;
70829;SDS011;58451;51.550;7.208;2023-11-21T09:03:21;41.60;;;16.20;;
70829;SDS011;58451;51.550;7.208;2023-11-21T09:04:53;50.50;;;17.00;;
70829;SDS011;58451;51.550;7.208;2023-11-21T09:06:25;45.20;;;15.80;;
70829;SDS011;58451;51.550;7.208;2023-11-21T09:07:58;45.30;;;16.10;;
70829;SDS011;58451;51.550;7.208;2023-11-21T09:09:29;51.10;;;16.60;;
70829;SDS011;58451;51.550;7.208;2023-11-21T09:11:01;52.90;;;17.10;;